sensor_id;sensor_type;location;lat;lon;timestamp;P1;durP1;ratioP1;P2;durP2;ratioP2
64623;SDS011;51031;50.912;9.242;2022-07-25T00:00:00;12.60;;;7.38;;
64623;SDS011;51031;50.912;9.242;2022-07-25T00:00:16;11.48;;;7.20;;
64623;SDS011;51031;50.912;9.242;2022-07-25T00:00:32;10.00;;;7.00;;
64623;SDS011;51031;50.912;9.242;2022-07-25T00:00:48;11.23;;;7.13;;
64623;SDS011;51031;50.912;9.242;2022-07-25T00:01:05;12.80;;;7.60;;
64623;SDS011;51031;50.912;9.242;2022-07-25T00:01:21;10.80;;;7.47;;
64623;SDS011;51031;50.912;9.242;2022-07-25T00:01:37;9.13;;;7.15;;
64623;SDS011;51031;50.912;9.242;2022-07-25T00:01:52;9.70;;;6.75;;
64623;SDS011;51031;50.912;9.242;2022-07-25T00:02:08;11.38;;;7.03;;
64623;SDS011;51031;50.912;9.242;2022-07-25T00:02:25;11.80;;;7.40;;
64623;SDS011;51031;50.912;9.242;2022-07-25T00:02:42;11.38;;;7.30;;
64623;SDS011;51031;50.912;9.242;2022-07-25T00:02:58;11.07;;;7.40;;
64623;SDS011;51031;50.912;9.242;2022-07-25T00:03:14;9.82;;;7.35;;
64623;SDS011;51031;50.912;9.242;2022-07-25T00:03:30;11.02;;;7.35;;
64623;SDS011;51031;50.912;9.242;2022-07-25T00:03:46;12.10;;;7.37;;
64623;SDS011;51031;50.912;9.242;2022-07-25T00:04:02;11.85;;;7.30;;
64623;SDS011;51031;50.912;9.242;2022-07-25T00:04:18;10.40;;;7.07;;
64623;SDS011;51031;50.912;9.242;2022-07-25T00:04:34;11.25;;;7.13;;
64623;SDS011;51031;50.912;9.242;2022-07-25T00:04:50;11.68;;;6.95;;
64623;SDS011;51031;50.912;9.242;2022-07-25T00:05:06;10.87;;;7.20;;
64623;SDS011;51031;50.912;9.242;2022-07-25T00:05:23;10.32;;;7.40;;
64623;SDS011;51031;50.912;9.242;2022-07-25T00:05:39;9.80;;;7.30;;
64623;SDS011;51031;50.912;9.242;2022-07-25T00:05:54;10.30;;;7.28;;
64623;SDS011;51031;50.912;9.242;2022-07-25T00:06:10;9.65;;;7.10;;
64623;SDS011;51031;50.912;9.242;2022-07-25T00:06:26;9.83;;;7.30;;
64623;SDS011;51031;50.912;9.242;2022-07-25T00:06:42;11.57;;;7.45;;
64623;SDS011;51031;50.912;9.242;2022-07-25T00:07:01;11.13;;;7.43;;
64623;SDS011;51031;50.912;9.242;2022-07-25T00:07:17;12.25;;;7.47;;
64623;SDS011;51031;50.912;9.242;2022-07-25T00:07:33;14.82;;;7.50;;
64623;SDS011;51031;50.912;9.242;2022-07-25T00:07:49;12.50;;;7.47;;
64623;SDS011;51031;50.912;9.242;2022-07-25T00:08:05;10.43;;;7.55;;
64623;SDS011;51031;50.912;9.242;2022-07-25T00:08:21;11.07;;;7.75;;
64623;SDS011;51031;50.912;9.242;2022-07-25T00:08:37;10.90;;;7.95;;
64623;SDS011;51031;50.912;9.242;2022-07-25T00:08:53;11.20;;;7.95;;
64623;SDS011;51031;50.912;9.242;2022-07-25T00:09:08;11.57;;;7.90;;
64623;SDS011;51031;50.912;9.242;2022-07-25T00:09:27;11.00;;;7.68;;
64623;SDS011;51031;50.912;9.242;2022-07-25T00:09:43;11.43;;;7.53;;
64623;SDS011;51031;50.912;9.242;2022-07-25T00:09:59;10.80;;;7.00;;
64623;SDS011;51031;50.912;9.242;2022-07-25T00:10:15;10.45;;;6.93;;
64623;SDS011;51031;50.912;9.242;2022-07-25T00:10:31;12.32;;;7.30;;
64623;SDS011;51031;50.912;9.242;2022-07-25T00:10:47;11.97;;;7.10;;
64623;SDS011;51031;50.912;9.242;2022-07-25T00:11:03;10.80;;;6.97;;
64623;SDS011;51031;50.912;9.242;2022-07-25T00:11:20;12.73;;;7.35;;
64623;SDS011;51031;50.912;9.242;2022-07-25T00:11:36;13.02;;;7.65;;
64623;SDS011;51031;50.912;9.242;2022-07-25T00:11:52;10.53;;;7.57;;
64623;SDS011;51031;50.912;9.242;2022-07-25T00:12:10;9.05;;;7.38;;
64623;SDS011;51031;50.912;9.242;2022-07-25T00:12:26;9.80;;;7.23;;
64623;SDS011;51031;50.912;9.242;2022-07-25T00:12:43;10.00;;;7.40;;
64623;SDS011;51031;50.912;9.242;2022-07-25T00:12:59;11.70;;;7.57;;
64623;SDS011;51031;50.912;9.242;2022-07-25T00:13:14;12.38;;;7.43;;
64623;SDS011;51031;50.912;9.242;2022-07-25T00:13:30;11.33;;;7.30;;
64623;SDS011;51031;50.912;9.242;2022-07-25T00:13:46;12.68;;;7.72;;
64623;SDS011;51031;50.912;9.242;2022-07-25T00:14:02;12.88;;;7.82;;
64623;SDS011;51031;50.912;9.242;2022-07-25T00:14:19;12.18;;;7.57;;
64623;SDS011;51031;50.912;9.242;2022-07-25T00:14:35;11.68;;;7.50;;
64623;SDS011;51031;50.912;9.242;2022-07-25T00:14:51;10.80;;;7.60;;
64623;SDS011;51031;50.912;9.242;2022-07-25T00:15:07;10.17;;;7.47;;
64623;SDS011;51031;50.912;9.242;2022-07-25T00:15:24;10.70;;;7.28;;
64623;SDS011;51031;50.912;9.242;2022-07-25T00:15:40;11.43;;;7.38;;
64623;SDS011;51031;50.912;9.242;2022-07-25T00:15:56;11.43;;;7.95;;
64623;SDS011;51031;50.912;9.242;2022-07-25T00:16:12;11.90;;;8.13;;
64623;SDS011;51031;50.912;9.242;2022-07-25T00:16:30;11.05;;;7.60;;
64623;SDS011;51031;50.912;9.242;2022-07-25T00:16:46;11.00;;;7.63;;
64623;SDS011;51031;50.912;9.242;2022-07-25T00:17:02;11.20;;;7.88;;
64623;SDS011;51031;50.912;9.242;2022-07-25T00:17:18;13.98;;;8.13;;
64623;SDS011;51031;50.912;9.242;2022-07-25T00:17:34;14.88;;;7.88;;
64623;SDS011;51031;50.912;9.242;2022-07-25T00:17:51;13.43;;;7.43;;
64623;SDS011;51031;50.912;9.242;2022-07-25T00:18:07;12.02;;;7.30;;
64623;SDS011;51031;50.912;9.242;2022-07-25T00:18:23;10.85;;;7.40;;
64623;SDS011;51031;50.912;9.242;2022-07-25T00:18:39;12.13;;;7.55;;
64623;SDS011;51031;50.912;9.242;2022-07-25T00:18:56;11.80;;;7.60;;
64623;SDS011;51031;50.912;9.242;2022-07-25T00:19:12;10.40;;;7.50;;
64623;SDS011;51031;50.912;9.242;2022-07-25T00:19:28;9.82;;;7.47;;
64623;SDS011;51031;50.912;9.242;2022-07-25T00:19:43;9.63;;;7.47;;
64623;SDS011;51031;50.912;9.242;2022-07-25T00:19:59;10.93;;;7.70;;
64623;SDS011;51031;50.912;9.242;2022-07-25T00:20:15;12.65;;;8.10;;
64623;SDS011;51031;50.912;9.242;2022-07-25T00:20:32;12.32;;;7.97;;
64623;SDS011;51031;50.912;9.242;2022-07-25T00:20:48;10.45;;;7.32;;
64623;SDS011;51031;50.912;9.242;2022-07-25T00:21:04;9.98;;;7.25;;
64623;SDS011;51031;50.912;9.242;2022-07-25T00:21:20;11.00;;;7.57;;
64623;SDS011;51031;50.912;9.242;2022-07-25T00:21:36;12.17;;;7.60;;
64623;SDS011;51031;50.912;9.242;2022-07-25T00:21:52;13.13;;;7.55;;
64623;SDS011;51031;50.912;9.242;2022-07-25T00:22:08;12.25;;;7.68;;
64623;SDS011;51031;50.912;9.242;2022-07-25T00:22:24;13.35;;;7.85;;
64623;SDS011;51031;50.912;9.242;2022-07-25T00:22:40;15.00;;;8.02;;
64623;SDS011;51031;50.912;9.242;2022-07-25T00:22:56;13.68;;;7.80;;
64623;SDS011;51031;50.912;9.242;2022-07-25T00:23:12;12.52;;;7.60;;
64623;SDS011;51031;50.912;9.242;2022-07-25T00:23:28;10.85;;;7.47;;
64623;SDS011;51031;50.912;9.242;2022-07-25T00:23:44;10.33;;;7.43;;
64623;SDS011;51031;50.912;9.242;2022-07-25T00:24:00;11.27;;;7.70;;
64623;SDS011;51031;50.912;9.242;2022-07-25T00:24:16;13.45;;;8.07;;
64623;SDS011;51031;50.912;9.242;2022-07-25T00:24:32;13.55;;;8.02;;
64623;SDS011;51031;50.912;9.242;2022-07-25T00:24:48;12.45;;;7.72;;
64623;SDS011;51031;50.912;9.242;2022-07-25T00:25:05;11.82;;;7.35;;
64623;SDS011;51031;50.912;9.242;2022-07-25T00:25:21;10.63;;;7.70;;
64623;SDS011;51031;50.912;9.242;2022-07-25T00:25:37;13.07;;;8.30;;
64623;SDS011;51031;50.912;9.242;2022-07-25T00:25:53;12.73;;;8.02;;
64623;SDS011;51031;50.912;9.242;2022-07-25T00:26:08;12.47;;;7.90;;
64623;SDS011;51031;50.912;9.242;2022-07-25T00:26:24;11.55;;;7.65;;
64623;SDS011;51031;50.912;9.242;2022-07-25T00:26:43;11.50;;;7.93;;
64623;SDS011;51031;50.912;9.242;2022-07-25T00:26:59;12.70;;;7.82;;
64623;SDS011;51031;50.912;9.242;2022-07-25T00:27:17;12.40;;;7.50;;
64623;SDS011;51031;50.912;9.242;2022-07-25T00:27:32;11.20;;;7.53;;
64623;SDS011;51031;50.912;9.242;2022-07-25T00:27:49;11.50;;;7.70;;
64623;SDS011;51031;50.912;9.242;2022-07-25T00:28:07;11.90;;;7.82;;
64623;SDS011;51031;50.912;9.242;2022-07-25T00:28:23;11.93;;;7.95;;
64623;SDS011;51031;50.912;9.242;2022-07-25T00:28:39;13.60;;;7.90;;
64623;SDS011;51031;50.912;9.242;2022-07-25T00:28:55;13.45;;;7.97;;
64623;SDS011;51031;50.912;9.242;2022-07-25T00:29:12;10.77;;;7.82;;
64623;SDS011;51031;50.912;9.242;2022-07-25T00:29:30;10.30;;;7.55;;
64623;SDS011;51031;50.912;9.242;2022-07-25T00:29:46;10.75;;;7.80;;
64623;SDS011;51031;50.912;9.242;2022-07-25T00:30:02;10.43;;;7.60;;
64623;SDS011;51031;50.912;9.242;2022-07-25T00:30:20;10.35;;;7.57;;
64623;SDS011;51031;50.912;9.242;2022-07-25T00:30:37;9.95;;;7.25;;
64623;SDS011;51031;50.912;9.242;2022-07-25T00:30:53;10.70;;;7.10;;
64623;SDS011;51031;50.912;9.242;2022-07-25T00:31:09;10.23;;;7.25;;
64623;SDS011;51031;50.912;9.242;2022-07-25T00:31:25;9.90;;;7.28;;
64623;SDS011;51031;50.912;9.242;2022-07-25T00:31:41;10.50;;;7.38;;
64623;SDS011;51031;50.912;9.242;2022-07-25T00:31:56;11.07;;;7.30;;
64623;SDS011;51031;50.912;9.242;2022-07-25T00:32:13;10.20;;;7.43;;
64623;SDS011;51031;50.912;9.242;2022-07-25T00:32:29;11.73;;;7.55;;
64623;SDS011;51031;50.912;9.242;2022-07-25T00:32:45;13.23;;;7.40;;
64623;SDS011;51031;50.912;9.242;2022-07-25T00:33:02;11.80;;;7.40;;
64623;SDS011;51031;50.912;9.242;2022-07-25T00:33:19;10.80;;;7.60;;
64623;SDS011;51031;50.912;9.242;2022-07-25T00:33:34;11.05;;;7.43;;
64623;SDS011;51031;50.912;9.242;2022-07-25T00:33:50;9.98;;;7.03;;
64623;SDS011;51031;50.912;9.242;2022-07-25T00:34:06;9.38;;;7.07;;
64623;SDS011;51031;50.912;9.242;2022-07-25T00:34:22;10.07;;;7.40;;
64623;SDS011;51031;50.912;9.242;2022-07-25T00:34:38;10.50;;;7.50;;
64623;SDS011;51031;50.912;9.242;2022-07-25T00:34:54;10.50;;;7.40;;
64623;SDS011;51031;50.912;9.242;2022-07-25T00:35:10;9.60;;;7.22;;
64623;SDS011;51031;50.912;9.242;2022-07-25T00:35:26;10.43;;;7.67;;
64623;SDS011;51031;50.912;9.242;2022-07-25T00:35:42;10.32;;;7.78;;
64623;SDS011;51031;50.912;9.242;2022-07-25T00:35:58;9.68;;;7.47;;
64623;SDS011;51031;50.912;9.242;2022-07-25T00:36:14;10.23;;;7.43;;
64623;SDS011;51031;50.912;9.242;2022-07-25T00:36:30;11.73;;;7.67;;
64623;SDS011;51031;50.912;9.242;2022-07-25T00:36:46;13.00;;;7.63;;
64623;SDS011;51031;50.912;9.242;2022-07-25T00:37:02;11.57;;;7.35;;
64623;SDS011;51031;50.912;9.242;2022-07-25T00:37:18;11.18;;;7.25;;
64623;SDS011;51031;50.912;9.242;2022-07-25T00:37:33;10.17;;;7.23;;
64623;SDS011;51031;50.912;9.242;2022-07-25T00:37:50;9.45;;;7.35;;
64623;SDS011;51031;50.912;9.242;2022-07-25T00:38:06;10.15;;;7.47;;
64623;SDS011;51031;50.912;9.242;2022-07-25T00:38:22;10.27;;;7.50;;
64623;SDS011;51031;50.912;9.242;2022-07-25T00:38:38;10.33;;;7.33;;
64623;SDS011;51031;50.912;9.242;2022-07-25T00:38:53;10.70;;;7.40;;
64623;SDS011;51031;50.912;9.242;2022-07-25T00:39:09;10.10;;;7.43;;
64623;SDS011;51031;50.912;9.242;2022-07-25T00:39:28;10.10;;;7.20;;
64623;SDS011;51031;50.912;9.242;2022-07-25T00:39:44;10.23;;;7.20;;
64623;SDS011;51031;50.912;9.242;2022-07-25T00:40:00;10.68;;;7.47;;
64623;SDS011;51031;50.912;9.242;2022-07-25T00:40:16;11.05;;;8.00;;
64623;SDS011;51031;50.912;9.242;2022-07-25T00:40:32;10.87;;;7.70;;
64623;SDS011;51031;50.912;9.242;2022-07-25T00:40:49;12.30;;;7.30;;
64623;SDS011;51031;50.912;9.242;2022-07-25T00:41:08;13.48;;;7.55;;
64623;SDS011;51031;50.912;9.242;2022-07-25T00:41:23;12.25;;;7.32;;
64623;SDS011;51031;50.912;9.242;2022-07-25T00:41:39;10.43;;;7.10;;
64623;SDS011;51031;50.912;9.242;2022-07-25T00:41:55;10.00;;;6.97;;
64623;SDS011;51031;50.912;9.242;2022-07-25T00:42:11;9.90;;;7.25;;
64623;SDS011;51031;50.912;9.242;2022-07-25T00:42:28;10.02;;;7.45;;
64623;SDS011;51031;50.912;9.242;2022-07-25T00:42:44;9.10;;;7.10;;
64623;SDS011;51031;50.912;9.242;2022-07-25T00:43:00;10.30;;;7.30;;
64623;SDS011;51031;50.912;9.242;2022-07-25T00:43:16;12.80;;;7.65;;
64623;SDS011;51031;50.912;9.242;2022-07-25T00:43:35;13.38;;;7.78;;
64623;SDS011;51031;50.912;9.242;2022-07-25T00:43:51;10.95;;;7.57;;
64623;SDS011;51031;50.912;9.242;2022-07-25T00:44:07;9.37;;;7.23;;
64623;SDS011;51031;50.912;9.242;2022-07-25T00:44:23;10.30;;;7.22;;
64623;SDS011;51031;50.912;9.242;2022-07-25T00:44:39;9.88;;;7.20;;
64623;SDS011;51031;50.912;9.242;2022-07-25T00:44:56;9.50;;;7.57;;
64623;SDS011;51031;50.912;9.242;2022-07-25T00:45:14;10.13;;;7.40;;
64623;SDS011;51031;50.912;9.242;2022-07-25T00:45:30;11.63;;;7.13;;
64623;SDS011;51031;50.912;9.242;2022-07-25T00:45:46;10.88;;;7.47;;
64623;SDS011;51031;50.912;9.242;2022-07-25T00:46:02;10.47;;;7.60;;
64623;SDS011;51031;50.912;9.242;2022-07-25T00:46:21;11.57;;;7.47;;
64623;SDS011;51031;50.912;9.242;2022-07-25T00:46:37;9.85;;;7.20;;
64623;SDS011;51031;50.912;9.242;2022-07-25T00:46:53;10.00;;;7.40;;
64623;SDS011;51031;50.912;9.242;2022-07-25T00:47:10;11.93;;;7.60;;
64623;SDS011;51031;50.912;9.242;2022-07-25T00:47:26;12.10;;;7.63;;
64623;SDS011;51031;50.912;9.242;2022-07-25T00:47:42;10.88;;;7.45;;
64623;SDS011;51031;50.912;9.242;2022-07-25T00:47:58;10.40;;;7.57;;
64623;SDS011;51031;50.912;9.242;2022-07-25T00:48:15;11.02;;;7.50;;
64623;SDS011;51031;50.912;9.242;2022-07-25T00:48:31;13.85;;;7.30;;
64623;SDS011;51031;50.912;9.242;2022-07-25T00:48:47;13.13;;;7.47;;
64623;SDS011;51031;50.912;9.242;2022-07-25T00:49:04;12.35;;;7.55;;
64623;SDS011;51031;50.912;9.242;2022-07-25T00:49:20;13.35;;;7.55;;
64623;SDS011;51031;50.912;9.242;2022-07-25T00:49:36;11.20;;;7.53;;
64623;SDS011;51031;50.912;9.242;2022-07-25T00:49:52;10.35;;;7.50;;
64623;SDS011;51031;50.912;9.242;2022-07-25T00:50:09;10.20;;;7.45;;
64623;SDS011;51031;50.912;9.242;2022-07-25T00:50:27;10.35;;;7.55;;
64623;SDS011;51031;50.912;9.242;2022-07-25T00:50:45;10.68;;;7.78;;
64623;SDS011;51031;50.912;9.242;2022-07-25T00:51:01;10.45;;;7.68;;
64623;SDS011;51031;50.912;9.242;2022-07-25T00:51:17;10.30;;;7.45;;
64623;SDS011;51031;50.912;9.242;2022-07-25T00:51:33;10.95;;;7.70;;
64623;SDS011;51031;50.912;9.242;2022-07-25T00:51:50;11.07;;;7.55;;
64623;SDS011;51031;50.912;9.242;2022-07-25T00:52:06;10.73;;;7.30;;
64623;SDS011;51031;50.912;9.242;2022-07-25T00:52:22;10.98;;;7.50;;
64623;SDS011;51031;50.912;9.242;2022-07-25T00:52:38;10.75;;;7.80;;
64623;SDS011;51031;50.912;9.242;2022-07-25T00:52:54;11.30;;;7.68;;
64623;SDS011;51031;50.912;9.242;2022-07-25T00:53:11;12.07;;;7.55;;
64623;SDS011;51031;50.912;9.242;2022-07-25T00:53:27;11.60;;;7.67;;
64623;SDS011;51031;50.912;9.242;2022-07-25T00:53:43;11.27;;;7.88;;
64623;SDS011;51031;50.912;9.242;2022-07-25T00:54:01;11.52;;;7.80;;
64623;SDS011;51031;50.912;9.242;2022-07-25T00:54:17;11.93;;;7.60;;
64623;SDS011;51031;50.912;9.242;2022-07-25T00:54:34;11.43;;;7.50;;
64623;SDS011;51031;50.912;9.242;2022-07-25T00:54:49;10.63;;;7.50;;
64623;SDS011;51031;50.912;9.242;2022-07-25T00:55:07;10.93;;;7.30;;
64623;SDS011;51031;50.912;9.242;2022-07-25T00:55:23;10.50;;;7.33;;
64623;SDS011;51031;50.912;9.242;2022-07-25T00:55:40;11.25;;;7.53;;
64623;SDS011;51031;50.912;9.242;2022-07-25T00:55:56;11.10;;;7.33;;
64623;SDS011;51031;50.912;9.242;2022-07-25T00:56:11;10.65;;;6.82;;
64623;SDS011;51031;50.912;9.242;2022-07-25T00:56:27;10.13;;;6.72;;
64623;SDS011;51031;50.912;9.242;2022-07-25T00:56:45;9.38;;;6.70;;
64623;SDS011;51031;50.912;9.242;2022-07-25T00:57:01;9.65;;;7.10;;
64623;SDS011;51031;50.912;9.242;2022-07-25T00:57:17;9.77;;;7.32;;
64623;SDS011;51031;50.912;9.242;2022-07-25T00:57:32;10.00;;;7.03;;
64623;SDS011;51031;50.912;9.242;2022-07-25T00:57:48;10.07;;;7.22;;
64623;SDS011;51031;50.912;9.242;2022-07-25T00:58:05;10.63;;;7.25;;
64623;SDS011;51031;50.912;9.242;2022-07-25T00:58:21;10.25;;;7.00;;
64623;SDS011;51031;50.912;9.242;2022-07-25T00:58:37;8.95;;;6.78;;
64623;SDS011;51031;50.912;9.242;2022-07-25T00:58:52;8.98;;;6.50;;
64623;SDS011;51031;50.912;9.242;2022-07-25T00:59:09;9.68;;;6.60;;
64623;SDS011;51031;50.912;9.242;2022-07-25T00:59:26;10.48;;;6.85;;
64623;SDS011;51031;50.912;9.242;2022-07-25T00:59:42;10.00;;;6.78;;
64623;SDS011;51031;50.912;9.242;2022-07-25T00:59:57;10.48;;;6.72;;
64623;SDS011;51031;50.912;9.242;2022-07-25T01:00:14;10.23;;;6.80;;
64623;SDS011;51031;50.912;9.242;2022-07-25T01:00:32;9.98;;;6.95;;
64623;SDS011;51031;50.912;9.242;2022-07-25T01:00:47;9.70;;;6.73;;
64623;SDS011;51031;50.912;9.242;2022-07-25T01:01:04;9.73;;;6.55;;
64623;SDS011;51031;50.912;9.242;2022-07-25T01:01:20;10.35;;;6.80;;
64623;SDS011;51031;50.912;9.242;2022-07-25T01:01:36;9.45;;;6.45;;
64623;SDS011;51031;50.912;9.242;2022-07-25T01:01:52;9.27;;;6.55;;
64623;SDS011;51031;50.912;9.242;2022-07-25T01:02:09;11.13;;;6.57;;
64623;SDS011;51031;50.912;9.242;2022-07-25T01:02:24;10.15;;;6.40;;
64623;SDS011;51031;50.912;9.242;2022-07-25T01:02:41;8.15;;;6.22;;
64623;SDS011;51031;50.912;9.242;2022-07-25T01:02:58;8.25;;;6.18;;
64623;SDS011;51031;50.912;9.242;2022-07-25T01:03:15;9.52;;;6.30;;
64623;SDS011;51031;50.912;9.242;2022-07-25T01:03:31;9.70;;;6.60;;
64623;SDS011;51031;50.912;9.242;2022-07-25T01:03:47;10.40;;;6.95;;
64623;SDS011;51031;50.912;9.242;2022-07-25T01:04:04;10.75;;;6.80;;
64623;SDS011;51031;50.912;9.242;2022-07-25T01:04:20;10.40;;;6.60;;
64623;SDS011;51031;50.912;9.242;2022-07-25T01:04:36;10.73;;;6.70;;
64623;SDS011;51031;50.912;9.242;2022-07-25T01:04:52;11.18;;;6.60;;
64623;SDS011;51031;50.912;9.242;2022-07-25T01:05:09;10.70;;;6.40;;
64623;SDS011;51031;50.912;9.242;2022-07-25T01:05:26;9.38;;;6.18;;
64623;SDS011;51031;50.912;9.242;2022-07-25T01:05:45;9.20;;;6.38;;
64623;SDS011;51031;50.912;9.242;2022-07-25T01:06:01;9.80;;;6.60;;
64623;SDS011;51031;50.912;9.242;2022-07-25T01:06:17;9.60;;;6.35;;
64623;SDS011;51031;50.912;9.242;2022-07-25T01:06:34;9.98;;;6.28;;
64623;SDS011;51031;50.912;9.242;2022-07-25T01:06:51;10.68;;;6.10;;
64623;SDS011;51031;50.912;9.242;2022-07-25T01:07:07;9.90;;;6.30;;
64623;SDS011;51031;50.912;9.242;2022-07-25T01:07:23;9.33;;;6.13;;
64623;SDS011;51031;50.912;9.242;2022-07-25T01:07:39;9.68;;;6.40;;
64623;SDS011;51031;50.912;9.242;2022-07-25T01:07:55;9.77;;;6.85;;
64623;SDS011;51031;50.912;9.242;2022-07-25T01:08:13;9.77;;;6.65;;
64623;SDS011;51031;50.912;9.242;2022-07-25T01:08:29;11.77;;;7.05;;
64623;SDS011;51031;50.912;9.242;2022-07-25T01:08:45;12.43;;;7.18;;
64623;SDS011;51031;50.912;9.242;2022-07-25T01:09:02;10.10;;;7.10;;
64623;SDS011;51031;50.912;9.242;2022-07-25T01:09:18;9.27;;;6.85;;
64623;SDS011;51031;50.912;9.242;2022-07-25T01:09:35;9.52;;;6.72;;
64623;SDS011;51031;50.912;9.242;2022-07-25T01:09:52;9.10;;;6.50;;
64623;SDS011;51031;50.912;9.242;2022-07-25T01:10:08;9.48;;;6.97;;
64623;SDS011;51031;50.912;9.242;2022-07-25T01:10:24;10.37;;;7.33;;
64623;SDS011;51031;50.912;9.242;2022-07-25T01:10:40;10.85;;;7.10;;
64623;SDS011;51031;50.912;9.242;2022-07-25T01:10:56;11.65;;;6.78;;
64623;SDS011;51031;50.912;9.242;2022-07-25T01:11:13;11.32;;;6.90;;
64623;SDS011;51031;50.912;9.242;2022-07-25T01:11:29;12.35;;;7.00;;
64623;SDS011;51031;50.912;9.242;2022-07-25T01:11:45;12.07;;;7.10;;
64623;SDS011;51031;50.912;9.242;2022-07-25T01:12:01;9.77;;;7.10;;
64623;SDS011;51031;50.912;9.242;2022-07-25T01:12:18;10.18;;;7.40;;
64623;SDS011;51031;50.912;9.242;2022-07-25T01:12:43;10.40;;;7.28;;
64623;SDS011;51031;50.912;9.242;2022-07-25T01:13:01;9.43;;;7.00;;
64623;SDS011;51031;50.912;9.242;2022-07-25T01:13:17;9.95;;;7.00;;
64623;SDS011;51031;50.912;9.242;2022-07-25T01:13:34;9.88;;;7.05;;
64623;SDS011;51031;50.912;9.242;2022-07-25T01:13:50;10.30;;;7.03;;
64623;SDS011;51031;50.912;9.242;2022-07-25T01:14:06;10.07;;;7.05;;
64623;SDS011;51031;50.912;9.242;2022-07-25T01:14:22;8.75;;;6.70;;
64623;SDS011;51031;50.912;9.242;2022-07-25T01:14:38;10.20;;;6.70;;
64623;SDS011;51031;50.912;9.242;2022-07-25T01:14:55;11.05;;;6.90;;
64623;SDS011;51031;50.912;9.242;2022-07-25T01:15:11;10.32;;;6.80;;
64623;SDS011;51031;50.912;9.242;2022-07-25T01:15:27;10.38;;;7.10;;
64623;SDS011;51031;50.912;9.242;2022-07-25T01:15:42;10.73;;;7.38;;
64623;SDS011;51031;50.912;9.242;2022-07-25T01:15:58;11.13;;;7.22;;
64623;SDS011;51031;50.912;9.242;2022-07-25T01:16:15;11.30;;;7.22;;
64623;SDS011;51031;50.912;9.242;2022-07-25T01:16:31;11.48;;;7.10;;
64623;SDS011;51031;50.912;9.242;2022-07-25T01:16:47;11.70;;;6.90;;
64623;SDS011;51031;50.912;9.242;2022-07-25T01:17:03;10.55;;;7.18;;
64623;SDS011;51031;50.912;9.242;2022-07-25T01:17:19;9.68;;;7.38;;
64623;SDS011;51031;50.912;9.242;2022-07-25T01:17:35;10.80;;;7.38;;
64623;SDS011;51031;50.912;9.242;2022-07-25T01:17:51;10.55;;;7.30;;
64623;SDS011;51031;50.912;9.242;2022-07-25T01:18:08;10.38;;;7.25;;
64623;SDS011;51031;50.912;9.242;2022-07-25T01:18:25;10.40;;;7.13;;
64623;SDS011;51031;50.912;9.242;2022-07-25T01:18:41;9.75;;;6.90;;
64623;SDS011;51031;50.912;9.242;2022-07-25T01:18:57;10.27;;;6.87;;
64623;SDS011;51031;50.912;9.242;2022-07-25T01:19:13;10.57;;;7.03;;
64623;SDS011;51031;50.912;9.242;2022-07-25T01:19:30;10.15;;;7.20;;
64623;SDS011;51031;50.912;9.242;2022-07-25T01:19:46;10.48;;;7.30;;
64623;SDS011;51031;50.912;9.242;2022-07-25T01:20:02;9.80;;;7.17;;
64623;SDS011;51031;50.912;9.242;2022-07-25T01:20:20;9.00;;;7.03;;
64623;SDS011;51031;50.912;9.242;2022-07-25T01:20:37;9.82;;;7.05;;
64623;SDS011;51031;50.912;9.242;2022-07-25T01:20:54;11.48;;;7.13;;
64623;SDS011;51031;50.912;9.242;2022-07-25T01:21:09;11.10;;;7.20;;
64623;SDS011;51031;50.912;9.242;2022-07-25T01:21:25;10.57;;;6.97;;
64623;SDS011;51031;50.912;9.242;2022-07-25T01:21:41;10.35;;;6.70;;
64623;SDS011;51031;50.912;9.242;2022-07-25T01:21:57;10.07;;;6.85;;
64623;SDS011;51031;50.912;9.242;2022-07-25T01:22:16;9.80;;;6.90;;
64623;SDS011;51031;50.912;9.242;2022-07-25T01:22:32;9.68;;;6.60;;
64623;SDS011;51031;50.912;9.242;2022-07-25T01:22:48;9.85;;;6.70;;
64623;SDS011;51031;50.912;9.242;2022-07-25T01:23:04;9.80;;;6.95;;
64623;SDS011;51031;50.912;9.242;2022-07-25T01:23:20;10.40;;;7.10;;
64623;SDS011;51031;50.912;9.242;2022-07-25T01:23:36;11.30;;;6.95;;
64623;SDS011;51031;50.912;9.242;2022-07-25T01:23:52;11.70;;;6.95;;
64623;SDS011;51031;50.912;9.242;2022-07-25T01:24:08;10.70;;;6.70;;
64623;SDS011;51031;50.912;9.242;2022-07-25T01:24:24;9.98;;;6.82;;
64623;SDS011;51031;50.912;9.242;2022-07-25T01:24:40;10.15;;;7.20;;
64623;SDS011;51031;50.912;9.242;2022-07-25T01:24:58;10.10;;;6.80;;
64623;SDS011;51031;50.912;9.242;2022-07-25T01:25:15;9.45;;;6.63;;
64623;SDS011;51031;50.912;9.242;2022-07-25T01:25:31;9.63;;;6.75;;
64623;SDS011;51031;50.912;9.242;2022-07-25T01:25:47;10.65;;;6.82;;
64623;SDS011;51031;50.912;9.242;2022-07-25T01:26:03;9.48;;;6.70;;
64623;SDS011;51031;50.912;9.242;2022-07-25T01:26:19;9.27;;;6.68;;
64623;SDS011;51031;50.912;9.242;2022-07-25T01:26:35;10.77;;;7.25;;
64623;SDS011;51031;50.912;9.242;2022-07-25T01:26:51;10.85;;;7.13;;
64623;SDS011;51031;50.912;9.242;2022-07-25T01:27:07;10.55;;;6.90;;
64623;SDS011;51031;50.912;9.242;2022-07-25T01:27:26;10.48;;;7.40;;
64623;SDS011;51031;50.912;9.242;2022-07-25T01:27:42;9.52;;;7.05;;
64623;SDS011;51031;50.912;9.242;2022-07-25T01:27:59;10.00;;;6.97;;
64623;SDS011;51031;50.912;9.242;2022-07-25T01:28:15;9.15;;;6.55;;
64623;SDS011;51031;50.912;9.242;2022-07-25T01:28:31;8.55;;;6.45;;
64623;SDS011;51031;50.912;9.242;2022-07-25T01:28:46;8.00;;;6.72;;
64623;SDS011;51031;50.912;9.242;2022-07-25T01:29:02;9.05;;;6.82;;
64623;SDS011;51031;50.912;9.242;2022-07-25T01:29:19;9.88;;;7.13;;
64623;SDS011;51031;50.912;9.242;2022-07-25T01:29:38;10.55;;;7.05;;
64623;SDS011;51031;50.912;9.242;2022-07-25T01:29:53;10.65;;;6.93;;
64623;SDS011;51031;50.912;9.242;2022-07-25T01:30:10;11.43;;;7.00;;
64623;SDS011;51031;50.912;9.242;2022-07-25T01:30:28;10.85;;;7.15;;
64623;SDS011;51031;50.912;9.242;2022-07-25T01:30:44;9.90;;;6.97;;
64623;SDS011;51031;50.912;9.242;2022-07-25T01:31:00;9.00;;;6.60;;
64623;SDS011;51031;50.912;9.242;2022-07-25T01:31:16;8.95;;;6.63;;
64623;SDS011;51031;50.912;9.242;2022-07-25T01:31:32;9.20;;;6.70;;
64623;SDS011;51031;50.912;9.242;2022-07-25T01:31:48;9.55;;;6.78;;
64623;SDS011;51031;50.912;9.242;2022-07-25T01:32:04;10.48;;;6.80;;
64623;SDS011;51031;50.912;9.242;2022-07-25T01:32:23;11.05;;;6.82;;
64623;SDS011;51031;50.912;9.242;2022-07-25T01:32:39;9.38;;;6.55;;
64623;SDS011;51031;50.912;9.242;2022-07-25T01:32:55;11.20;;;6.80;;
64623;SDS011;51031;50.912;9.242;2022-07-25T01:33:13;12.13;;;6.97;;
64623;SDS011;51031;50.912;9.242;2022-07-25T01:33:30;9.82;;;6.50;;
64623;SDS011;51031;50.912;9.242;2022-07-25T01:33:46;9.25;;;6.30;;
64623;SDS011;51031;50.912;9.242;2022-07-25T01:34:02;9.83;;;6.30;;
64623;SDS011;51031;50.912;9.242;2022-07-25T01:34:18;9.80;;;6.47;;
64623;SDS011;51031;50.912;9.242;2022-07-25T01:34:35;8.60;;;6.50;;
64623;SDS011;51031;50.912;9.242;2022-07-25T01:34:50;9.00;;;6.60;;
64623;SDS011;51031;50.912;9.242;2022-07-25T01:35:07;10.00;;;6.70;;
64623;SDS011;51031;50.912;9.242;2022-07-25T01:35:25;8.80;;;6.50;;
64623;SDS011;51031;50.912;9.242;2022-07-25T01:35:40;8.52;;;6.32;;
64623;SDS011;51031;50.912;9.242;2022-07-25T01:35:56;8.83;;;6.37;;
64623;SDS011;51031;50.912;9.242;2022-07-25T01:36:13;10.32;;;6.63;;
64623;SDS011;51031;50.912;9.242;2022-07-25T01:36:29;10.63;;;6.90;;
64623;SDS011;51031;50.912;9.242;2022-07-25T01:36:45;9.23;;;6.75;;
64623;SDS011;51031;50.912;9.242;2022-07-25T01:37:00;9.27;;;6.53;;
64623;SDS011;51031;50.912;9.242;2022-07-25T01:37:16;8.98;;;6.55;;